Time;durP1;ratioP1;P1;durP2;ratioP2;P2;SDS_P1;SDS_P2;PMS_P1;PMS_P2;Temp;Humidity;BMP_temperature;BMP_pressure;BME280_temperature;BME280_humidity;BME280_pressure;Samples;Min_cycle;Max_cycle;Signal;HPM_P1;HPM_P2
2021/06/03 00:02:13;;;;;;;;;;;;;;;21.00;39.21;100514.34;1832761;78;20147;-76
2021/06/03 00:04:40;;;;;;;;;;;;;;;21.00;39.15;100523.88;1831925;78;20148;-77
2021/06/03 00:07:07;;;;;;;;;;;;;;;20.99;38.94;100509.44;1832361;78;20171;-76
2021/06/03 00:09:33;;;;;;;;;;;;;;;20.98;39.05;100513.72;1832871;77;20456;-76
2021/06/03 00:12:00;;;;;;;;;;;;;;;20.98;39.02;100517.81;1832712;77;20168;-76
2021/06/03 00:14:27;;;;;;;;;;;;;;;20.96;39.31;100511.23;1832752;77;20096;-76
2021/06/03 00:16:53;;;;;;;;;;;;;;;20.95;39.38;100515.55;1832880;77;20092;-76
2021/06/03 00:19:19;;;;;;;;;;;;;;;20.94;39.17;100510.64;1832442;78;20151;-77
2021/06/03 00:21:45;;;;;;;;;;;;;;;20.90;39.25;100508.06;1832930;77;20150;-76
2021/06/03 00:24:12;;;;;;;;;;;;;;;20.91;39.04;100504.27;1833008;77;20175;-77
2021/06/03 00:26:38;;;;;;;;;;;;;;;20.91;38.79;100519.78;1832822;77;20430;-76
2021/06/03 00:29:05;;;;;;;;;;;;;;;20.91;38.92;100507.00;1832394;77;20153;-76
2021/06/03 00:31:32;;;;;;;;;;;;;;;20.90;38.96;100508.59;1832662;77;20153;-76
2021/06/03 00:33:58;;;;;;;;;;;;;;;20.89;39.08;100508.27;1832893;78;20152;-76
2021/06/03 00:36:25;;;;;;;;;;;;;;;20.89;38.98;100505.05;1832603;77;20434;-76
2021/06/03 00:38:51;;;;;;;;;;;;;;;20.90;39.01;100509.95;1832996;77;20160;-76
2021/06/03 00:41:19;;;;;;;;;;;;;;;20.87;39.07;100510.39;1832762;77;20780;-76
2021/06/03 00:43:46;;;;;;;;;;;;;;;20.88;39.08;100512.05;1832425;78;20133;-76
2021/06/03 00:46:13;;;;;;;;;;;;;;;20.88;38.98;100505.25;1832874;77;20184;-76
2021/06/03 00:48:41;;;;;;;;;;;;;;;20.89;39.04;100500.09;1832682;77;20137;-76
2021/06/03 00:51:08;;;;;;;;;;;;;;;20.87;39.05;100494.06;1832729;77;20088;-75
2021/06/03 00:53:37;;;;;;;;;;;;;;;20.86;38.93;100500.56;1832751;78;20145;-76
2021/06/03 00:56:05;;;;;;;;;;;;;;;20.85;38.99;100507.91;1832413;77;20155;-75
2021/06/03 00:58:34;;;;;;;;;;;;;;;20.84;39.04;100499.94;1832372;78;20175;-75
2021/06/03 01:01:01;;;;;;;;;;;;;;;20.81;39.05;100506.69;1845453;77;20128;-76
2021/06/03 01:03:28;;;;;;;;;;;;;;;20.80;39.05;100502.27;1850813;77;20128;-76
2021/06/03 01:05:59;;;;;;;;;;;;;;;20.80;39.05;100504.17;1849498;77;20128;-76
2021/06/03 01:08:36;;;;;;;;;;;;;;;20.78;39.04;100501.15;1849750;76;20421;-76
2021/06/03 01:11:35;;;;;;;;;;;;;;;20.77;39.01;100506.83;1872697;76;20150;-76
2021/06/03 01:14:18;;;;;;;;;;;;;;;20.75;38.93;100508.39;1883565;76;20117;-75
2021/06/03 01:16:46;;;;;;;;;;;;;;;20.75;38.77;100504.84;1852153;76;20134;-76
2021/06/03 01:19:15;;;;;;;;;;;;;;;20.73;38.85;100505.08;1796502;79;20314;-76
2021/06/03 01:22:00;;;;;;;;;;;;;;;20.69;39.02;100501.13;1821881;79;20219;-76
2021/06/03 01:24:32;;;;;;;;;;;;;;;20.64;39.13;100500.97;1776605;78;20130;-75
2021/06/03 01:27:12;;;;;;;;;;;;;;;20.61;38.93;100501.41;1822342;79;20132;-75
2021/06/03 01:30:14;;;;;;;;;;;;;;;20.61;38.98;100506.02;1811400;79;20134;-75
2021/06/03 01:32:43;;;;;;;;;;;;;;;20.68;38.83;100506.28;1821754;79;20070;-75
2021/06/03 01:35:13;;;;;;;;;;;;;;;20.64;38.90;100496.06;1821864;79;20126;-75
2021/06/03 01:37:40;;;;;;;;;;;;;;;20.63;38.92;100503.39;1822329;79;20122;-75
2021/06/03 01:40:07;;;;;;;;;;;;;;;20.64;38.85;100502.33;1821579;79;20173;-76
2021/06/03 01:42:35;;;;;;;;;;;;;;;20.59;38.94;100502.17;1821957;79;20423;-75
2021/06/03 01:45:02;;;;;;;;;;;;;;;20.65;38.79;100512.69;1821598;79;20138;-76
2021/06/03 01:47:30;;;;;;;;;;;;;;;20.64;38.82;100506.95;1797261;79;20154;-76
2021/06/03 01:49:59;;;;;;;;;;;;;;;20.62;38.92;100515.84;1821821;79;20173;-76
2021/06/03 01:52:25;;;;;;;;;;;;;;;20.62;38.82;100513.98;1822243;79;20078;-76
2021/06/03 01:54:52;;;;;;;;;;;;;;;20.62;38.79;100515.84;1822096;79;20400;-76
2021/06/03 01:57:20;;;;;;;;;;;;;;;20.58;38.85;100506.48;1822319;79;20114;-76
2021/06/03 01:59:49;;;;;;;;;;;;;;;20.55;38.82;100521.89;1820007;78;20416;-76
2021/06/03 02:02:15;;;;;;;;;;;;;;;20.50;38.97;100502.15;1822022;79;20138;-77
2021/06/03 02:04:43;;;;;;;;;;;;;;;20.51;38.97;100509.25;1821523;79;20173;-76
2021/06/03 02:07:11;;;;;;;;;;;;;;;20.47;38.88;100507.98;1821472;78;20134;-76
2021/06/03 02:09:37;;;;;;;;;;;;;;;20.48;38.84;100498.80;1824577;77;20222;-77
2021/06/03 02:12:07;;;;;;;;;;;;;;;20.47;38.84;100507.48;1834401;77;20413;-77
2021/06/03 02:14:36;;;;;;;;;;;;;;;20.47;38.91;100509.35;1852374;77;20128;-77
2021/06/03 02:17:05;;;;;;;;;;;;;;;20.46;38.81;100500.36;1852011;77;20131;-76
2021/06/03 02:19:43;;;;;;;;;;;;;;;20.43;38.72;100512.20;1849642;77;20183;-76
2021/06/03 02:22:10;;;;;;;;;;;;;;;20.39;38.61;100516.42;1848470;77;20174;-77
2021/06/03 02:24:38;;;;;;;;;;;;;;;20.37;38.76;100511.74;1795927;79;20137;-76
2021/06/03 02:27:05;;;;;;;;;;;;;;;20.35;38.77;100505.17;1820517;79;20242;-76
2021/06/03 02:29:32;;;;;;;;;;;;;;;20.37;38.74;100519.91;1795598;79;20200;-76
2021/06/03 02:32:03;;;;;;;;;;;;;;;20.38;38.71;100514.77;1820676;78;20193;-76
2021/06/03 02:34:31;;;;;;;;;;;;;;;20.37;38.77;100509.02;1820331;78;20182;-76
2021/06/03 02:36:59;;;;;;;;;;;;;;;20.36;38.57;100517.72;1821649;79;20157;-76
2021/06/03 02:39:25;;;;;;;;;;;;;;;20.36;38.58;100525.05;1821841;79;20207;-76
2021/06/03 02:41:52;;;;;;;;;;;;;;;20.37;38.58;100519.91;1822118;79;20118;-76
2021/06/03 02:44:18;;;;;;;;;;;;;;;20.39;38.64;100524.58;1821824;79;20162;-76
2021/06/03 02:46:44;;;;;;;;;;;;;;;20.34;38.74;100535.30;1821968;79;20138;-76
2021/06/03 02:49:11;;;;;;;;;;;;;;;20.33;38.72;100520.87;1821543;79;20142;-76
2021/06/03 02:51:40;;;;;;;;;;;;;;;20.32;38.70;100520.56;1821850;79;20134;-76
2021/06/03 02:54:09;;;;;;;;;;;;;;;20.32;38.65;100526.54;1835914;76;20157;-76
2021/06/03 02:56:37;;;;;;;;;;;;;;;20.29;38.52;100529.16;1883048;76;20066;-75
2021/06/03 02:59:03;;;;;;;;;;;;;;;20.26;38.74;100529.09;1882364;76;20227;-76
2021/06/03 03:01:30;;;;;;;;;;;;;;;20.25;38.81;100527.40;1883622;76;20142;-76
2021/06/03 03:03:58;;;;;;;;;;;;;;;20.25;38.76;100526.56;1882698;76;20134;-77
2021/06/03 03:06:25;;;;;;;;;;;;;;;20.25;38.66;100512.97;1882212;76;20160;-76
2021/06/03 03:08:52;;;;;;;;;;;;;;;20.24;38.46;100513.50;1882283;76;20264;-77
2021/06/03 03:11:18;;;;;;;;;;;;;;;20.24;38.53;100524.38;1882360;76;20492;-76
2021/06/03 03:13:47;;;;;;;;;;;;;;;20.24;38.71;100527.09;1881962;76;20502;-76
2021/06/03 03:16:15;;;;;;;;;;;;;;;20.25;38.54;100525.20;1847700;77;20217;-76
2021/06/03 03:18:42;;;;;;;;;;;;;;;20.24;38.45;100528.45;1816934;78;20196;-78
2021/06/03 03:21:09;;;;;;;;;;;;;;;20.24;38.45;100537.14;1817887;79;20141;-76
2021/06/03 03:23:37;;;;;;;;;;;;;;;20.24;38.39;100531.70;1844994;77;20244;-76
2021/06/03 03:26:05;;;;;;;;;;;;;;;20.24;38.50;100528.45;1819078;77;20197;-77
2021/06/03 03:28:31;;;;;;;;;;;;;;;20.26;38.51;100537.25;1840211;77;20187;-77
2021/06/03 03:30:58;;;;;;;;;;;;;;;20.28;38.29;100537.02;1830935;77;20483;-77
2021/06/03 03:33:26;;;;;;;;;;;;;;;20.28;38.16;100531.58;1841634;77;20476;-77
2021/06/03 03:35:52;;;;;;;;;;;;;;;20.27;38.14;100539.44;1850392;77;20439;-77
2021/06/03 03:38:21;;;;;;;;;;;;;;;20.24;38.27;100539.87;1850212;77;20183;-77
2021/06/03 03:40:50;;;;;;;;;;;;;;;20.24;38.37;100538.51;1851614;77;20150;-76
2021/06/03 03:43:17;;;;;;;;;;;;;;;20.24;38.35;100542.05;1851072;77;20148;-77
2021/06/03 03:45:44;;;;;;;;;;;;;;;20.31;38.22;100539.31;1849805;77;20183;-77
2021/06/03 03:48:12;;;;;;;;;;;;;;;20.33;38.37;100541.80;1849421;77;20531;-77
2021/06/03 03:50:38;;;;;;;;;;;;;;;20.32;38.32;100549.13;1822518;78;20155;-77
2021/06/03 03:53:05;;;;;;;;;;;;;;;20.32;38.35;100551.02;1849595;76;20169;-76
2021/06/03 03:55:31;;;;;;;;;;;;;;;20.33;38.22;100541.80;1863230;76;20133;-77
2021/06/03 03:57:57;;;;;;;;;;;;;;;20.33;38.18;100554.04;1858481;76;20165;-76
2021/06/03 04:00:26;;;;;;;;;;;;;;;20.36;38.04;100550.89;1809520;79;20195;-76
2021/06/03 04:02:55;;;;;;;;;;;;;;;20.35;37.97;100547.84;1809794;77;20396;-79
2021/06/03 04:05:23;;;;;;;;;;;;;;;20.36;38.12;100553.08;1827470;77;20477;-78
2021/06/03 04:07:49;;;;;;;;;;;;;;;20.33;38.17;100537.72;1816554;79;20135;-77
2021/06/03 04:10:17;;;;;;;;;;;;;;;20.29;38.22;100548.20;1847580;77;20401;-77
2021/06/03 04:12:44;;;;;;;;;;;;;;;20.28;38.18;100549.26;1831842;77;20425;-77
2021/06/03 04:15:11;;;;;;;;;;;;;;;20.27;38.11;100552.52;1828870;77;20129;-77
2021/06/03 04:17:39;;;;;;;;;;;;;;;20.33;38.00;100556.76;1851726;77;20124;-77
2021/06/03 04:20:09;;;;;;;;;;;;;;;20.39;38.05;100558.59;1842299;76;20145;-77
2021/06/03 04:22:36;;;;;;;;;;;;;;;20.43;38.14;100552.48;1833209;77;20475;-77
2021/06/03 04:25:07;;;;;;;;;;;;;;;20.50;38.03;100551.12;1851559;77;20163;-76
2021/06/03 04:27:33;;;;;;;;;;;;;;;20.48;37.87;100556.80;1851969;77;20160;-77
2021/06/03 04:29:59;;;;;;;;;;;;;;;20.46;37.93;100552.59;1834372;76;20355;-76
2021/06/03 04:32:27;;;;;;;;;;;;;;;20.48;37.83;100558.16;1853977;76;20469;-76
2021/06/03 04:34:54;;;;;;;;;;;;;;;20.49;37.99;100561.71;1836835;77;20163;-75
2021/06/03 04:37:21;;;;;;;;;;;;;;;20.50;38.17;100555.20;1849912;77;20081;-77
2021/06/03 04:39:47;;;;;;;;;;;;;;;20.52;37.98;100553.09;1845550;76;20504;-76
2021/06/03 04:42:14;;;;;;;;;;;;;;;20.55;38.02;100553.19;1837146;78;20127;-76
2021/06/03 04:44:40;;;;;;;;;;;;;;;20.59;38.16;100559.33;1838620;77;20466;-76
2021/06/03 04:47:06;;;;;;;;;;;;;;;20.63;38.11;100552.39;1849474;76;20131;-76
2021/06/03 04:49:32;;;;;;;;;;;;;;;20.70;38.00;100554.50;1825069;77;20167;-77
2021/06/03 04:52:25;;;;;;;;;;;;;;;20.74;37.68;100545.37;1846014;77;20183;-77
2021/06/03 04:54:28;;;;;;;;;;;;;;;20.80;37.78;100547.73;1840109;76;20210;-76
2021/06/03 04:56:54;;;;;;;;;;;;;;;20.84;37.70;100543.50;1833778;75;20162;-76
2021/06/03 04:59:22;;;;;;;;;;;;;;;20.88;37.46;100540.11;1837276;76;20233;-77
2021/06/03 05:01:49;;;;;;;;;;;;;;;20.93;37.54;100536.72;1837440;76;20225;-75
2021/06/03 05:04:17;;;;;;;;;;;;;;;20.99;37.29;100548.09;1841121;76;20634;-75
2021/06/03 05:06:43;;;;;;;;;;;;;;;20.97;37.63;100545.57;1840624;76;20181;-75
2021/06/03 05:09:09;;;;;;;;;;;;;;;21.01;37.63;100544.60;1844208;75;20165;-76
2021/06/03 05:11:35;;;;;;;;;;;;;;;21.06;37.42;100545.28;1847605;76;20195;-76
2021/06/03 05:14:01;;;;;;;;;;;;;;;21.02;37.45;100548.98;1836723;76;20200;-76
2021/06/03 05:16:27;;;;;;;;;;;;;;;21.10;37.38;100555.50;1840084;77;20236;-77
2021/06/03 05:18:55;;;;;;;;;;;;;;;21.13;37.51;100553.70;1833837;77;20200;-77
2021/06/03 05:21:22;;;;;;;;;;;;;;;21.18;37.51;100550.30;1830871;76;20256;-76
2021/06/03 05:23:48;;;;;;;;;;;;;;;21.32;37.66;100557.84;1830951;77;20171;-77
2021/06/03 05:26:15;;;;;;;;;;;;;;;21.38;37.40;100541.93;1837565;76;20164;-76
2021/06/03 05:28:41;;;;;;;;;;;;;;;21.45;37.15;100564.50;1833091;76;20162;-77
2021/06/03 05:31:07;;;;;;;;;;;;;;;21.49;36.98;100562.99;1812644;77;20175;-77
2021/06/03 05:33:34;;;;;;;;;;;;;;;21.56;37.02;100566.45;1803294;76;20129;-77
2021/06/03 05:36:01;;;;;;;;;;;;;;;21.59;36.64;100566.01;1834696;76;20149;-77
2021/06/03 05:38:28;;;;;;;;;;;;;;;21.56;36.89;100566.45;1836056;76;20139;-77
2021/06/03 05:40:54;;;;;;;;;;;;;;;21.63;36.88;100568.58;1831274;76;20115;-76
2021/06/03 05:43:20;;;;;;;;;;;;;;;21.70;36.71;100561.14;1831838;76;20128;-76
2021/06/03 05:45:46;;;;;;;;;;;;;;;21.76;37.01;100563.50;1836030;77;20561;-76
2021/06/03 05:48:14;;;;;;;;;;;;;;;21.86;36.72;100560.23;1837905;75;20160;-76
2021/06/03 05:50:40;;;;;;;;;;;;;;;21.95;36.68;100564.30;1834649;76;20202;-76
2021/06/03 05:53:06;;;;;;;;;;;;;;;21.98;36.70;100563.82;1833456;77;20157;-75
2021/06/03 05:55:32;;;;;;;;;;;;;;;22.04;36.54;100573.83;1833541;77;20184;-76
2021/06/03 05:57:59;;;;;;;;;;;;;;;22.10;36.49;100566.08;1833183;77;20115;-77
2021/06/03 06:00:29;;;;;;;;;;;;;;;22.16;36.22;100570.62;1831002;77;20160;-76
2021/06/03 06:08:09;;;;;;;;;;;;;;;22.33;36.42;100574.07;1826351;77;20102;-77
2021/06/03 06:10:35;;;;;;;;;;;;;;;22.49;36.20;100569.32;1836048;77;20123;-75
2021/06/03 06:13:04;;;;;;;;;;;;;;;22.49;36.12;100570.16;1838584;77;20144;-76
2021/06/03 06:15:32;;;;;;;;;;;;;;;22.59;35.76;100569.58;1836123;76;20194;-76
2021/06/03 06:18:00;;;;;;;;;;;;;;;22.67;35.87;100565.14;1826457;76;20140;-76
2021/06/03 06:20:27;;;;;;;;;;;;;;;22.73;35.50;100569.66;1832310;76;20148;-76
2021/06/03 06:22:56;;;;;;;;;;;;;;;22.77;35.26;100572.75;1835205;75;20147;-76
2021/06/03 06:25:22;;;;;;;;;;;;;;;22.71;35.02;100571.80;1835663;76;20136;-76
2021/06/03 06:27:48;;;;;;;;;;;;;;;22.69;34.91;100582.11;1838128;75;20115;-79
2021/06/03 06:30:15;;;;;;;;;;;;;;;22.70;34.85;100572.84;1840739;76;20766;-78
2021/06/03 06:32:41;;;;;;;;;;;;;;;22.71;34.69;100574.53;1842463;75;20123;-77
2021/06/03 06:35:08;;;;;;;;;;;;;;;22.73;34.68;100577.02;1836873;76;20275;-78
2021/06/03 06:37:34;;;;;;;;;;;;;;;22.82;34.37;100573.41;1836798;76;20147;-77
2021/06/03 06:40:02;;;;;;;;;;;;;;;22.83;34.44;100573.70;1841479;76;20374;-78
2021/06/03 06:42:34;;;;;;;;;;;;;;;22.85;34.14;100572.95;1837041;76;20095;-76
2021/06/03 06:45:05;;;;;;;;;;;;;;;22.89;33.98;100575.47;1840063;76;20096;-78
2021/06/03 06:47:35;;;;;;;;;;;;;;;22.84;33.85;100585.74;1840965;76;20092;-78
2021/06/03 06:50:04;;;;;;;;;;;;;;;22.87;34.07;100589.91;1832995;76;20099;-78
2021/06/03 06:52:30;;;;;;;;;;;;;;;22.87;33.85;100583.09;1837563;76;20133;-76
2021/06/03 06:54:59;;;;;;;;;;;;;;;22.79;33.87;100587.81;1831210;76;20163;-75
2021/06/03 06:57:25;;;;;;;;;;;;;;;22.83;33.88;100588.72;1830336;76;20559;-77
2021/06/03 06:59:51;;;;;;;;;;;;;;;22.81;34.05;100586.77;1831190;76;20178;-77
2021/06/03 07:02:21;;;;;;;;;;;;;;;22.82;34.15;100591.16;1827124;76;20107;-78
2021/06/03 07:04:47;;;;;;;;;;;;;;;22.85;34.43;100590.70;1833973;76;20083;-78
2021/06/03 07:07:13;;;;;;;;;;;;;;;22.90;34.10;100590.85;1837343;77;20099;-77
2021/06/03 07:09:42;;;;;;;;;;;;;;;22.93;33.80;100591.19;1806371;77;20118;-77
2021/06/03 07:12:09;;;;;;;;;;;;;;;22.96;33.51;100584.43;1833509;77;20633;-76
2021/06/03 07:14:36;;;;;;;;;;;;;;;22.97;33.36;100593.75;1836260;77;20146;-76
2021/06/03 07:17:07;;;;;;;;;;;;;;;22.96;33.45;100593.45;1811045;76;20144;-78
2021/06/03 07:19:35;;;;;;;;;;;;;;;22.97;33.85;100599.20;1836041;76;20567;-78
2021/06/03 07:22:06;;;;;;;;;;;;;;;23.01;33.32;100592.74;1816092;77;20135;-79
2021/06/03 07:24:35;;;;;;;;;;;;;;;23.02;33.02;100593.86;1834090;76;20110;-80
2021/06/03 07:27:06;;;;;;;;;;;;;;;23.04;32.71;100595.02;1801491;77;20167;-78
2021/06/03 07:29:35;;;;;;;;;;;;;;;23.00;32.78;100591.09;1835925;77;20146;-78
2021/06/03 07:32:11;;;;;;;;;;;;;;;22.99;33.24;100604.45;1833404;76;20166;-79
2021/06/03 07:34:39;;;;;;;;;;;;;;;22.98;32.96;100599.53;1822509;77;20140;-79
2021/06/03 07:37:05;;;;;;;;;;;;;;;22.99;32.38;100596.27;1820435;77;20106;-79
2021/06/03 07:39:34;;;;;;;;;;;;;;;23.03;32.49;100611.94;1834040;77;20174;-78
2021/06/03 07:42:01;;;;;;;;;;;;;;;23.10;32.22;100588.59;1834146;76;20169;-80
2021/06/03 07:44:27;;;;;;;;;;;;;;;23.11;32.55;100595.70;1808931;77;20559;-78
2021/06/03 07:46:54;;;;;;;;;;;;;;;23.19;32.72;100587.70;1834045;76;20551;-79
2021/06/03 07:49:20;;;;;;;;;;;;;;;23.28;32.70;100602.66;1838110;76;20118;-78
2021/06/03 07:51:46;;;;;;;;;;;;;;;23.37;32.99;100586.20;1832025;77;20150;-80
2021/06/03 07:54:21;;;;;;;;;;;;;;;23.49;32.95;100594.40;1829966;76;20412;-78
2021/06/03 07:56:56;;;;;;;;;;;;;;;23.57;32.94;100597.27;1833928;75;20275;-77
2021/06/03 07:59:25;;;;;;;;;;;;;;;23.65;32.50;100609.25;1831990;75;20264;-78
2021/06/03 08:01:52;;;;;;;;;;;;;;;23.74;32.44;100597.69;1820928;76;20250;-77
2021/06/03 08:04:20;;;;;;;;;;;;;;;23.79;32.16;100601.06;1829210;77;20588;-77
2021/06/03 08:06:47;;;;;;;;;;;;;;;23.81;32.10;100601.67;1836735;77;20115;-78
2021/06/03 08:09:18;;;;;;;;;;;;;;;23.84;31.53;100608.55;1835386;77;20549;-78
2021/06/03 08:11:45;;;;;;;;;;;;;;;23.81;31.81;100611.25;1832502;76;20111;-77
2021/06/03 08:14:13;;;;;;;;;;;;;;;23.86;31.77;100605.05;1831760;77;20512;-76
2021/06/03 08:16:39;;;;;;;;;;;;;;;23.90;31.32;100613.06;1841953;77;20154;-78
2021/06/03 08:19:07;;;;;;;;;;;;;;;23.92;31.29;100612.27;1831934;76;20127;-78
2021/06/03 08:21:34;;;;;;;;;;;;;;;23.95;31.30;100617.27;1813882;77;20630;-78
2021/06/03 08:24:14;;;;;;;;;;;;;;;24.00;31.50;100614.63;1836833;76;20130;-78
2021/06/03 08:26:41;;;;;;;;;;;;;;;23.97;31.36;100617.84;1838895;76;20820;-79
2021/06/03 08:29:11;;;;;;;;;;;;;;;23.97;31.40;100613.74;1820740;77;20123;-78
2021/06/03 08:31:39;;;;;;;;;;;;;;;23.99;31.63;100635.70;1817377;76;20127;-79
2021/06/03 08:34:06;;;;;;;;;;;;;;;23.99;31.78;100626.66;1834613;75;20412;-80
2021/06/03 08:36:32;;;;;;;;;;;;;;;24.11;31.52;100625.23;1830561;77;20172;-78
2021/06/03 08:38:59;;;;;;;;;;;;;;;24.10;31.37;100620.30;1833285;77;20131;-79
2021/06/03 08:41:25;;;;;;;;;;;;;;;24.13;31.13;100626.67;1829974;76;20593;-79
2021/06/03 08:43:51;;;;;;;;;;;;;;;24.18;31.34;100624.56;1826691;77;20102;-79
2021/06/03 08:46:18;;;;;;;;;;;;;;;24.25;31.11;100623.36;1814523;77;20437;-80
2021/06/03 08:48:47;;;;;;;;;;;;;;;24.41;31.02;100624.49;1831447;77;20133;-80
2021/06/03 08:51:13;;;;;;;;;;;;;;;24.41;31.24;100631.34;1831713;76;20171;-78
2021/06/03 08:53:39;;;;;;;;;;;;;;;24.45;31.65;100620.73;1831158;76;20136;-78
2021/06/03 08:56:15;;;;;;;;;;;;;;;24.51;31.42;100623.84;1830914;76;20128;-80
2021/06/03 08:58:47;;;;;;;;;;;;;;;24.54;30.79;100626.92;1825918;77;20165;-77
2021/06/03 09:01:14;;;;;;;;;;;;;;;24.59;31.23;100627.56;1830686;77;20107;-79
2021/06/03 09:03:41;;;;;;;;;;;;;;;24.61;30.93;100625.39;1838001;76;20107;-78
2021/06/03 09:06:08;;;;;;;;;;;;;;;24.63;30.47;100629.27;1814133;77;20128;-77
2021/06/03 09:08:50;;;;;;;;;;;;;;;;;;;;;
2021/06/03 09:11:29;;;;;;;;;;;;;;;24.67;30.43;100634.55;1829255;76;20183;-79
2021/06/03 09:14:02;;;;;;;;;;;;;;;24.59;30.88;100631.66;1831190;77;20150;-79
2021/06/03 09:16:28;;;;;;;;;;;;;;;24.58;30.68;100637.40;1833739;77;20169;-78
2021/06/03 09:18:59;;;;;;;;;;;;;;;24.55;30.95;100638.70;1833142;76;20119;-80
2021/06/03 09:21:31;;;;;;;;;;;;;;;24.52;31.06;100639.19;1835201;75;20177;-77
2021/06/03 09:24:03;;;;;;;;;;;;;;;24.49;30.85;100638.33;1833206;76;20138;-80
2021/06/03 09:26:32;;;;;;;;;;;;;;;24.45;30.86;100642.64;1833896;76;20176;-79
2021/06/03 09:28:59;;;;;;;;;;;;;;;24.45;31.06;100645.38;1826339;76;20115;-79
2021/06/03 09:31:29;;;;;;;;;;;;;;;24.42;31.04;100644.48;1832311;76;20134;-76
2021/06/03 09:34:01;;;;;;;;;;;;;;;24.32;31.00;100635.52;1829746;77;20128;-76
2021/06/03 09:36:36;;;;;;;;;;;;;;;24.27;30.82;100641.72;1825777;76;20088;-76
2021/06/03 09:39:08;;;;;;;;;;;;;;;24.24;30.81;100642.20;1836145;76;21013;-76
2021/06/03 09:41:37;;;;;;;;;;;;;;;24.24;30.89;100625.77;1828741;76;20154;-77
2021/06/03 09:44:19;;;;;;;;;;;;;;;24.21;31.19;100638.61;1832285;76;20116;-77
2021/06/03 09:47:07;;;;;;;;;;;;;;;24.18;31.12;100636.88;1831869;76;20159;-77
2021/06/03 09:49:40;;;;;;;;;;;;;;;24.21;30.92;100637.74;1832795;77;21171;-76
2021/06/03 09:52:08;;;;;;;;;;;;;;;24.23;31.57;100641.09;1809509;77;20112;-77
2021/06/03 09:54:34;;;;;;;;;;;;;;;24.14;31.83;100641.18;1837853;76;20145;-78
2021/06/03 09:57:04;;;;;;;;;;;;;;;24.14;32.51;100631.06;1838562;77;20127;-77
2021/06/03 09:59:34;;;;;;;;;;;;;;;24.14;32.25;100633.80;1833855;76;20135;-78
2021/06/03 10:02:02;;;;;;;;;;;;;;;24.16;32.09;100635.73;1833905;76;20131;-76
2021/06/03 10:04:34;;;;;;;;;;;;;;;24.16;31.70;100638.47;1806484;77;20661;-76
2021/06/03 10:07:09;;;;;;;;;;;;;;;24.17;32.12;100647.00;1812169;77;20514;-76
2021/06/03 10:10:02;;;;;;;;;;;;;;;;;;;;;
2021/06/03 10:12:33;;;;;;;;;;;;;;;24.20;32.02;100645.12;1800614;77;20222;-77
2021/06/03 10:15:14;;;;;;;;;;;;;;;24.21;32.47;100655.53;1826194;76;20179;-77
2021/06/03 10:17:54;;;;;;;;;;;;;;;24.21;32.20;100655.53;1830585;77;20904;-77
2021/06/03 10:20:24;;;;;;;;;;;;;;;24.20;31.88;100656.62;1834264;76;20471;-76
2021/06/03 10:22:52;;;;;;;;;;;;;;;24.16;32.21;100645.86;1826335;76;20198;-76
2021/06/03 10:25:28;;;;;;;;;;;;;;;24.12;32.03;100649.64;1832924;76;20124;-78
2021/06/03 10:27:59;;;;;;;;;;;;;;;24.13;31.75;100658.14;1813899;77;20104;-77
2021/06/03 10:30:52;;;;;;;;;;;;;;;24.11;31.71;100654.80;1813928;76;20092;-77
2021/06/03 10:33:14;;;;;;;;;;;;;;;24.07;31.93;100651.42;1833210;75;20133;-78
2021/06/03 10:35:58;;;;;;;;;;;;;;;24.02;31.84;100650.78;1753609;80;20128;-78
2021/06/03 10:38:27;;;;;;;;;;;;;;;23.99;31.69;100655.39;1769777;78;20165;-77
2021/06/03 10:40:59;;;;;;;;;;;;;;;23.97;31.89;100647.94;1770039;79;20302;-77
2021/06/03 10:43:27;;;;;;;;;;;;;;;23.95;31.94;100655.58;1769174;78;20155;-77
2021/06/03 10:45:53;;;;;;;;;;;;;;;23.95;32.49;100656.94;1768068;79;20135;-77
2021/06/03 10:48:19;;;;;;;;;;;;;;;23.94;32.48;100662.12;1770031;79;20100;-77
2021/06/03 10:50:49;;;;;;;;;;;;;;;23.96;32.55;100659.97;1768869;79;20120;-77
2021/06/03 10:53:19;;;;;;;;;;;;;;;23.97;33.06;100667.92;1769639;78;20158;-76
2021/06/03 10:55:50;;;;;;;;;;;;;;;23.96;33.08;100669.55;1782919;78;20132;-76
2021/06/03 10:58:18;;;;;;;;;;;;;;;23.93;33.02;100676.86;1777634;79;20108;-77
2021/06/03 11:00:45;;;;;;;;;;;;;;;23.90;33.24;100672.72;1774845;79;20477;-77
2021/06/03 11:03:19;;;;;;;;;;;;;;;23.89;33.18;100672.94;1767317;79;20161;-79
2021/06/03 11:06:04;;;;;;;;;;;;;;;23.90;33.62;100671.89;1772589;78;20140;-78
2021/06/03 11:08:34;;;;;;;;;;;;;;;23.93;34.30;100679.59;1754680;79;20084;-77
2021/06/03 11:11:14;;;;;;;;;;;;;;;23.96;34.31;100676.38;1775186;78;20611;-78
2021/06/03 11:13:47;;;;;;;;;;;;;;;24.00;34.53;100673.47;1777694;79;20123;-79
2021/06/03 11:16:28;;;;;;;;;;;;;;;24.01;34.81;100672.38;1774265;79;20607;-78
2021/06/03 11:18:59;;;;;;;;;;;;;;;24.02;35.13;100684.44;1773261;78;20218;-78
2021/06/03 11:21:36;;;;;;;;;;;;;;;24.02;35.42;100680.87;1758122;79;20124;-77
2021/06/03 11:24:31;;;;;;;;;;;;;;;23.99;35.48;100679.48;1770238;79;20123;-79
2021/06/03 11:27:00;;;;;;;;;;;;;;;23.97;35.65;100677.50;1769420;78;20167;-78
2021/06/03 11:29:30;;;;;;;;;;;;;;;23.96;35.73;100684.59;1772165;78;20196;-78
2021/06/03 11:32:07;;;;;;;;;;;;;;;23.95;35.88;100688.41;1773004;78;20119;-78
2021/06/03 11:34:42;;;;;;;;;;;;;;;23.95;36.06;100689.78;1775744;79;20189;-77
2021/06/03 11:37:23;;;;;;;;;;;;;;;23.93;36.29;100682.33;1779629;78;20214;-77
2021/06/03 11:40:02;;;;;;;;;;;;;;;23.93;36.48;100686.43;1772544;78;20105;-77
2021/06/03 11:42:40;;;;;;;;;;;;;;;23.98;36.35;100688.77;1761382;79;20108;-78
2021/06/03 11:45:14;;;;;;;;;;;;;;;23.97;35.78;100686.25;1769649;78;20148;-77
2021/06/03 11:47:47;;;;;;;;;;;;;;;23.97;35.13;100683.52;1776767;79;20616;-77
2021/06/03 11:50:20;;;;;;;;;;;;;;;24.02;34.60;100680.87;1772154;78;20096;-77
2021/06/03 11:52:59;;;;;;;;;;;;;;;24.02;34.17;100687.72;1774053;79;20100;-78
2021/06/03 11:55:34;;;;;;;;;;;;;;;24.05;34.10;100685.88;1759283;79;20713;-75
2021/06/03 11:58:31;;;;;;;;;;;;;;;24.10;34.42;100690.63;1770330;79;20132;-77
2021/06/03 12:01:06;;;;;;;;;;;;;;;24.12;35.09;100693.94;1770832;79;20148;-77
2021/06/03 12:03:50;;;;;;;;;;;;;;;24.15;35.28;100693.47;1769155;80;20846;-77
2021/06/03 12:06:26;;;;;;;;;;;;;;;24.16;35.58;100694.58;1773742;79;20128;-77
2021/06/03 12:08:55;;;;;;;;;;;;;;;24.13;35.65;100701.93;1767604;80;20796;-77
2021/06/03 12:11:38;;;;;;;;;;;;;;;24.14;35.93;100699.48;1772052;79;20111;-78
2021/06/03 12:14:07;;;;;;;;;;;;;;;24.20;36.18;100698.50;1770133;80;20110;-77
2021/06/03 12:16:39;;;;;;;;;;;;;;;24.23;35.87;100702.13;1773794;79;20147;-78
2021/06/03 12:19:12;;;;;;;;;;;;;;;24.28;35.72;100702.23;1776345;79;20610;-76
2021/06/03 12:21:43;;;;;;;;;;;;;;;24.28;35.75;100695.39;1768279;79;20220;-77
2021/06/03 12:24:10;;;;;;;;;;;;;;;24.30;35.78;100695.16;1771502;79;20426;-76
2021/06/03 12:26:38;;;;;;;;;;;;;;;24.31;35.43;100700.92;1770107;80;20116;-77
2021/06/03 12:29:05;;;;;;;;;;;;;;;24.33;35.09;100693.83;1771698;79;20143;-77
2021/06/03 12:31:33;;;;;;;;;;;;;;;24.33;35.19;100682.88;1772334;79;20174;-77
2021/06/03 12:33:59;;;;;;;;;;;;;;;24.40;35.02;100689.09;1773093;79;20104;-77
2021/06/03 12:36:26;;;;;;;;;;;;;;;24.40;35.36;100691.83;1770692;79;20204;-79
2021/06/03 12:38:56;;;;;;;;;;;;;;;24.39;35.75;100680.05;1769105;78;20465;-76
2021/06/03 12:41:29;;;;;;;;;;;;;;;24.48;36.03;100692.27;1775049;79;20131;-77
2021/06/03 12:43:59;;;;;;;;;;;;;;;24.51;36.17;100697.78;1776590;78;20462;-77
2021/06/03 12:46:33;;;;;;;;;;;;;;;24.53;36.26;100698.38;1776227;78;20082;-78
2021/06/03 12:49:01;;;;;;;;;;;;;;;24.49;36.03;100687.63;1770927;80;20205;-79
2021/06/03 12:51:27;;;;;;;;;;;;;;;24.50;35.38;100692.02;1773291;78;20099;-77
2021/06/03 12:53:54;;;;;;;;;;;;;;;24.47;35.46;100685.65;1770914;79;20091;-78
2021/06/03 12:56:23;;;;;;;;;;;;;;;24.43;35.37;100688.58;1774446;80;20141;-77